Time;durP1;ratioP1;P1;durP2;ratioP2;P2;SDS_P1;SDS_P2;PMS_P1;PMS_P2;Temp;Humidity;BMP_temperature;BMP_pressure;BME280_temperature;BME280_humidity;BME280_pressure;Samples;Min_cycle;Max_cycle;Signal;HPM_P1;HPM_P2
2023/04/27 00:01:14;;;;;;;7.83;4.10;;;3.20;99.90;;;;;;5063025;28;20028;-62
2023/04/27 00:03:41;;;;;;;4.50;2.83;;;3.20;99.90;;;;;;5073186;28;20031;-62
2023/04/27 00:06:08;;;;;;;8.50;4.05;;;3.10;99.90;;;;;;5063250;28;20044;-61
2023/04/27 00:08:34;;;;;;;9.38;3.92;;;3.10;99.90;;;;;;5070843;28;20035;-62
2023/04/27 00:11:00;;;;;;;8.77;4.10;;;3.20;99.90;;;;;;5073438;28;20029;-62
2023/04/27 00:13:26;;;;;;;10.10;4.10;;;3.20;99.90;;;;;;5070709;28;20028;-62
2023/04/27 00:15:52;;;;;;;9.93;4.10;;;3.20;99.90;;;;;;5069000;28;20347;-62
2023/04/27 00:18:18;;;;;;;5.70;3.22;;;3.20;99.90;;;;;;5071650;28;20152;-75
2023/04/27 00:20:44;;;;;;;10.00;3.72;;;3.20;99.90;;;;;;5069045;28;20150;-62
2023/04/27 00:23:10;;;;;;;5.27;3.10;;;3.10;99.90;;;;;;5076683;28;20116;-61
2023/04/27 00:25:36;;;;;;;7.23;3.10;;;3.10;99.90;;;;;;5077901;28;20029;-62
2023/04/27 00:28:02;;;;;;;4.05;3.03;;;3.00;99.90;;;;;;5077292;28;20407;-61
2023/04/27 00:30:27;;;;;;;8.70;3.43;;;2.90;99.90;;;;;;5076247;28;20108;-76
2023/04/27 00:32:53;;;;;;;6.57;4.00;;;2.90;99.90;;;;;;5076902;28;20028;-61
2023/04/27 00:35:19;;;;;;;6.30;3.93;;;2.90;99.90;;;;;;5077202;28;20028;-76
2023/04/27 00:37:45;;;;;;;6.53;3.90;;;3.00;99.90;;;;;;5072306;28;20021;-62
2023/04/27 00:40:11;;;;;;;8.23;3.90;;;2.90;99.90;;;;;;5076250;28;20037;-62
2023/04/27 00:42:36;;;;;;;9.17;4.40;;;2.90;99.90;;;;;;5069819;28;20033;-62
2023/04/27 00:45:04;;;;;;;8.93;4.57;;;2.80;99.90;;;;;;5060050;28;20124;-78
2023/04/27 00:47:31;;;;;;;8.65;4.28;;;2.70;99.90;;;;;;5058824;28;20032;-62
2023/04/27 00:49:56;;;;;;;12.55;3.85;;;2.70;99.90;;;;;;5076317;28;20056;-62
2023/04/27 00:52:22;;;;;;;10.57;3.93;;;2.70;99.90;;;;;;5075838;28;20055;-79
2023/04/27 00:54:50;;;;;;;7.80;4.27;;;2.70;99.90;;;;;;5065395;28;20435;-62
2023/04/27 00:57:16;;;;;;;6.43;3.85;;;2.70;99.90;;;;;;5070629;28;20427;-61
2023/04/27 00:59:42;;;;;;;6.83;3.87;;;2.70;99.90;;;;;;5065430;28;20043;-62
2023/04/27 01:02:11;;;;;;;25.03;3.77;;;2.70;99.90;;;;;;5067489;28;20408;-61
2023/04/27 01:04:37;;;;;;;5.70;3.22;;;2.80;99.90;;;;;;5072759;28;20029;-62
2023/04/27 01:07:03;;;;;;;7.33;3.83;;;2.80;99.90;;;;;;5073499;28;20033;-62
2023/04/27 01:09:29;;;;;;;5.73;3.23;;;2.70;99.90;;;;;;5070515;28;20033;-62
2023/04/27 01:11:54;;;;;;;8.20;3.80;;;2.80;99.90;;;;;;5066961;28;20257;-62
2023/04/27 01:14:20;;;;;;;46.40;4.73;;;2.70;99.90;;;;;;5075092;28;20030;-78
2023/04/27 01:16:46;;;;;;;15.90;3.60;;;2.70;99.90;;;;;;5076364;28;20024;-62
2023/04/27 01:19:12;;;;;;;135.60;10.73;;;2.60;99.90;;;;;;5076995;28;20025;-78
2023/04/27 01:21:38;;;;;;;5.67;2.90;;;2.60;99.90;;;;;;5060913;28;20308;-62
2023/04/27 01:24:07;;;;;;;7.77;3.57;;;2.50;99.90;;;;;;5076307;28;20636;-61
2023/04/27 01:26:33;;;;;;;11.02;3.97;;;2.40;99.90;;;;;;5072399;28;20108;-62
2023/04/27 01:28:59;;;;;;;6.43;3.33;;;2.50;99.90;;;;;;5066388;28;20147;-62
2023/04/27 01:31:25;;;;;;;7.03;4.10;;;2.50;99.90;;;;;;5076063;28;20032;-62
2023/04/27 01:33:51;;;;;;;8.33;4.27;;;2.40;99.90;;;;;;5076209;28;20031;-62
2023/04/27 01:36:16;;;;;;;11.43;3.80;;;2.40;99.90;;;;;;5062158;28;20412;-62
2023/04/27 01:38:43;;;;;;;10.73;4.37;;;2.30;99.90;;;;;;5055794;28;20029;-62
2023/04/27 01:41:09;;;;;;;7.65;4.28;;;2.30;99.90;;;;;;5068172;28;20475;-62
2023/04/27 01:43:38;;;;;;;9.33;4.80;;;2.30;99.90;;;;;;5058428;28;20121;-62
2023/04/27 01:46:07;;;;;;;9.38;4.30;;;2.30;99.90;;;;;;5066145;28;20379;-62
2023/04/27 01:48:34;;;;;;;8.98;5.22;;;2.30;99.90;;;;;;5075758;28;20355;-62
2023/04/27 01:50:59;;;;;;;6.88;4.18;;;2.30;99.90;;;;;;5076002;28;20339;-61
2023/04/27 01:53:25;;;;;;;6.63;3.90;;;2.30;99.90;;;;;;5061789;28;20055;-62
2023/04/27 01:55:51;;;;;;;6.73;3.47;;;2.30;99.90;;;;;;5074640;28;20016;-62
2023/04/27 01:58:16;;;;;;;5.47;2.70;;;2.30;99.90;;;;;;5076331;28;20025;-61
2023/04/27 02:00:42;;;;;;;10.80;3.87;;;2.40;99.90;;;;;;5073470;28;20051;-61
2023/04/27 02:03:08;;;;;;;7.03;4.37;;;2.40;99.90;;;;;;5072496;28;20309;-61
2023/04/27 02:05:34;;;;;;;12.40;4.40;;;2.40;99.90;;;;;;5073404;28;20297;-62
2023/04/27 02:07:59;;;;;;;9.43;4.13;;;2.40;99.90;;;;;;5072693;28;20040;-62
2023/04/27 02:10:25;;;;;;;87.33;7.50;;;2.50;99.90;;;;;;5063194;28;20043;-62
2023/04/27 02:12:51;;;;;;;52.17;7.13;;;2.40;99.90;;;;;;5063943;28;20025;-63
2023/04/27 02:15:17;;;;;;;4.33;3.03;;;2.40;99.90;;;;;;5061657;28;20030;-62
2023/04/27 02:17:42;;;;;;;8.50;4.07;;;2.40;99.90;;;;;;5065049;28;20020;-62
2023/04/27 02:20:09;;;;;;;16.20;5.47;;;2.30;99.90;;;;;;5075358;28;20032;-62
2023/04/27 02:22:35;;;;;;;;;;;2.20;99.90;;;;;;5074299;28;20055;-62
2023/04/27 02:25:01;;;;;;;8.68;5.28;;;2.30;99.90;;;;;;5075322;28;20317;-62
2023/04/27 02:27:27;;;;;;;8.25;3.90;;;2.20;99.90;;;;;;5072812;28;20101;-62
2023/04/27 02:29:53;;;;;;;8.17;4.87;;;2.20;99.90;;;;;;5070677;28;20320;-61
2023/04/27 02:32:18;;;;;;;9.60;4.23;;;2.20;99.90;;;;;;5069553;28;20032;-78
2023/04/27 02:34:44;;;;;;;7.80;4.50;;;2.20;99.90;;;;;;5067605;28;20029;-62
2023/04/27 02:37:10;;;;;;;17.10;4.53;;;2.10;99.90;;;;;;5072912;28;20033;-62
2023/04/27 02:39:36;;;;;;;11.40;5.23;;;2.10;99.90;;;;;;5072257;28;20082;-62
2023/04/27 02:42:02;;;;;;;12.18;4.95;;;2.10;99.90;;;;;;5072411;28;20037;-62
2023/04/27 02:44:28;;;;;;;8.30;4.80;;;2.00;99.90;;;;;;5071375;28;20032;-62
2023/04/27 02:46:54;;;;;;;7.60;4.15;;;2.00;99.90;;;;;;5069229;28;20056;-62
2023/04/27 02:49:19;;;;;;;10.47;4.80;;;2.00;99.90;;;;;;5070809;28;20060;-80
2023/04/27 02:51:45;;;;;;;19.23;4.23;;;1.90;99.90;;;;;;5069371;28;20025;-62
2023/04/27 02:54:11;;;;;;;10.27;4.30;;;1.90;99.90;;;;;;5070923;28;20028;-80
2023/04/27 02:56:36;;;;;;;9.33;4.93;;;1.90;99.90;;;;;;5069388;28;20033;-62
2023/04/27 02:59:02;;;;;;;8.30;3.20;;;1.90;99.90;;;;;;5068416;28;20026;-62
2023/04/27 03:01:28;;;;;;;8.00;4.40;;;1.80;99.90;;;;;;5068706;28;20024;-80
2023/04/27 03:03:54;;;;;;;15.67;5.70;;;1.80;99.90;;;;;;5062261;28;20024;-62
2023/04/27 03:06:20;;;;;;;11.07;4.10;;;1.80;99.90;;;;;;5062509;28;20035;-80
2023/04/27 03:08:45;;;;;;;7.73;3.80;;;1.80;99.90;;;;;;5064782;28;20024;-61
2023/04/27 03:11:11;;;;;;;12.27;5.00;;;1.80;99.90;;;;;;5062009;28;20028;-80
2023/04/27 03:13:40;;;;;;;19.50;5.97;;;1.80;99.90;;;;;;5061472;28;20108;-62
2023/04/27 03:16:10;;;;;;;8.55;4.70;;;1.80;99.90;;;;;;5066714;28;20100;-62
2023/04/27 03:18:36;;;;;;;10.52;4.80;;;1.80;99.90;;;;;;5059410;28;20028;-62
2023/04/27 03:21:09;;;;;;;12.65;4.72;;;1.80;99.90;;;;;;5062531;28;20025;-61
2023/04/27 03:23:35;;;;;;;9.38;4.35;;;1.80;99.90;;;;;;5070012;28;20045;-62
2023/04/27 03:26:09;;;;;;;9.82;4.68;;;1.80;99.90;;;;;;5063081;28;20031;-62
2023/04/27 03:28:35;;;;;;;16.17;6.10;;;1.70;99.90;;;;;;5064855;28;20442;-62
2023/04/27 03:31:05;;;;;;;10.48;5.20;;;1.80;99.90;;;;;;5060385;28;20029;-62
2023/04/27 03:33:30;;;;;;;10.32;5.75;;;1.80;99.90;;;;;;5070759;28;20153;-62
2023/04/27 03:35:57;;;;;;;12.23;6.07;;;1.80;99.90;;;;;;5069186;28;20090;-62
2023/04/27 03:38:24;;;;;;;8.77;5.35;;;1.80;99.90;;;;;;5064869;28;20029;-81
2023/04/27 03:40:49;;;;;;;;;;;1.90;99.90;;;;;;5068397;28;20032;-62
2023/04/27 03:43:15;;;;;;;15.07;6.37;;;1.90;99.90;;;;;;5073958;28;20310;-62
2023/04/27 03:45:41;;;;;;;13.97;5.20;;;1.80;99.90;;;;;;5067967;28;20021;-61
2023/04/27 03:48:06;;;;;;;12.03;6.50;;;1.80;99.90;;;;;;5066025;28;20028;-62
2023/04/27 03:50:32;;;;;;;13.67;5.93;;;1.80;99.90;;;;;;5064557;28;20029;-62
2023/04/27 03:52:58;;;;;;;12.57;5.90;;;1.80;99.90;;;;;;5073403;28;20071;-62
2023/04/27 03:55:24;;;;;;;15.43;6.33;;;1.80;99.90;;;;;;5074327;28;20021;-63
2023/04/27 03:57:50;;;;;;;9.40;4.75;;;1.80;99.90;;;;;;5068576;28;20091;-62
2023/04/27 04:00:17;;;;;;;20.83;7.10;;;1.90;99.90;;;;;;5074397;28;20419;-80
2023/04/27 04:02:43;;;;;;;10.88;6.35;;;1.90;99.90;;;;;;5069713;28;20021;-62
2023/04/27 04:05:09;;;;;;;9.13;4.68;;;1.90;99.90;;;;;;5071257;28;20036;-62
2023/04/27 04:07:35;;;;;;;11.98;6.07;;;1.90;99.90;;;;;;5070339;28;20032;-62
2023/04/27 04:10:01;;;;;;;20.93;6.23;;;1.90;99.90;;;;;;5064600;28;20385;-62
2023/04/27 04:12:27;;;;;;;9.90;5.80;;;1.90;99.90;;;;;;5073498;28;20069;-63
2023/04/27 04:14:52;;;;;;;15.60;6.90;;;1.90;99.90;;;;;;5069245;28;20029;-62
2023/04/27 04:17:18;;;;;;;13.67;5.37;;;1.90;99.90;;;;;;5068468;28;20021;-80
2023/04/27 04:19:44;;;;;;;11.80;5.37;;;1.80;99.90;;;;;;5066899;28;20115;-62
2023/04/27 04:22:10;;;;;;;7.53;4.77;;;1.70;99.90;;;;;;5069833;28;20371;-62
2023/04/27 04:24:36;;;;;;;10.77;4.95;;;1.70;99.90;;;;;;5066058;28;20036;-62
2023/04/27 04:27:03;;;;;;;11.37;5.87;;;1.60;99.90;;;;;;5066209;28;20170;-80
2023/04/27 04:29:29;;;;;;;19.92;6.90;;;1.60;99.90;;;;;;5066973;28;20527;-62
2023/04/27 04:31:55;;;;;;;7.18;3.85;;;1.60;99.90;;;;;;5066215;28;20028;-62
2023/04/27 04:34:23;;;;;;;10.03;5.93;;;1.70;99.90;;;;;;5065077;28;20320;-81
2023/04/27 04:36:52;;;;;;;11.23;5.70;;;1.70;99.90;;;;;;5069043;28;20023;-62
2023/04/27 04:39:21;;;;;;;8.68;5.63;;;1.70;99.90;;;;;;5068971;28;20049;-78
2023/04/27 04:41:50;;;;;;;12.77;6.20;;;1.70;99.90;;;;;;5069798;28;20021;-62
2023/04/27 04:44:16;;;;;;;14.98;6.15;;;1.70;99.90;;;;;;5065992;28;20039;-62
2023/04/27 04:46:42;;;;;;;16.47;6.10;;;1.70;99.90;;;;;;5063331;28;20459;-62
2023/04/27 04:49:08;;;;;;;11.52;5.50;;;1.80;99.90;;;;;;5064392;28;20420;-62
2023/04/27 04:51:34;;;;;;;11.35;5.97;;;1.80;99.90;;;;;;5066179;28;20025;-63
2023/04/27 04:54:00;;;;;;;8.48;5.82;;;1.70;99.90;;;;;;5066134;28;20293;-62
2023/04/27 04:56:26;;;;;;;14.43;6.47;;;1.70;99.90;;;;;;5067634;28;20027;-62
2023/04/27 04:58:51;;;;;;;9.70;5.40;;;1.70;99.90;;;;;;5066088;28;20021;-62
2023/04/27 05:01:17;;;;;;;17.70;5.90;;;1.70;99.90;;;;;;5069512;28;20073;-64
2023/04/27 05:03:43;;;;;;;12.27;4.57;;;1.80;99.90;;;;;;5069807;28;20125;-62
2023/04/27 05:06:08;;;;;;;16.77;4.90;;;1.90;99.90;;;;;;5075544;28;20060;-62
2023/04/27 05:08:34;;;;;;;8.57;4.20;;;1.90;99.90;;;;;;5076575;28;20115;-63
2023/04/27 05:11:00;;;;;;;10.57;5.93;;;2.00;99.90;;;;;;5069884;28;20035;-62
2023/04/27 05:13:26;;;;;;;8.53;4.73;;;2.00;99.90;;;;;;5064838;28;20025;-63
2023/04/27 05:15:52;;;;;;;14.45;4.93;;;2.00;99.90;;;;;;5065302;28;20028;-62
2023/04/27 05:18:18;;;;;;;12.40;5.00;;;2.00;99.90;;;;;;5063047;28;20045;-78
2023/04/27 05:20:44;;;;;;;7.37;4.53;;;2.10;99.90;;;;;;5064305;28;20112;-62
2023/04/27 05:23:10;;;;;;;9.50;4.97;;;2.10;99.90;;;;;;5062415;28;20017;-61
2023/04/27 05:25:42;;;;;;;10.80;4.90;;;2.20;99.90;;;;;;5072550;28;20036;-62
2023/04/27 05:28:09;;;;;;;10.10;4.28;;;2.20;99.90;;;;;;5070293;28;20166;-62
2023/04/27 05:30:35;;;;;;;8.75;4.82;;;2.30;99.90;;;;;;5068750;28;20040;-62
2023/04/27 05:33:04;;;;;;;9.70;5.80;;;2.40;99.90;;;;;;5073916;28;20029;-62
2023/04/27 05:35:30;;;;;;;16.20;5.30;;;2.50;99.90;;;;;;5071597;28;20026;-63
2023/04/27 05:37:56;;;;;;;10.43;4.97;;;2.50;99.90;;;;;;5068696;28;20016;-62
2023/04/27 05:40:22;;;;;;;14.40;5.07;;;2.60;99.90;;;;;;5064119;28;20320;-79
2023/04/27 05:42:48;;;;;;;8.83;5.07;;;2.70;99.90;;;;;;5063876;28;20444;-80
2023/04/27 05:45:14;;;;;;;5.47;3.80;;;2.80;99.90;;;;;;5104715;28;20115;-62
2023/04/27 05:47:40;;;;;;;7.68;4.07;;;2.90;99.90;;;;;;5065405;28;20032;-63
2023/04/27 05:50:07;;;;;;;12.13;4.33;;;3.00;99.90;;;;;;5065796;28;20323;-62
2023/04/27 05:52:33;;;;;;;8.98;4.10;;;3.10;99.90;;;;;;5068907;28;20030;-63
2023/04/27 05:54:58;;;;;;;11.63;3.40;;;3.30;99.90;;;;;;5066109;28;20099;-62
2023/04/27 05:57:25;;;;;;;11.13;4.40;;;3.40;99.90;;;;;;5063276;28;20029;-61
2023/04/27 05:59:52;;;;;;;9.07;4.95;;;3.50;99.90;;;;;;5060525;28;20057;-83
2023/04/27 06:02:18;;;;;;;11.88;4.10;;;3.60;99.90;;;;;;5067641;28;20027;-62
2023/04/27 06:04:45;;;;;;;7.90;3.10;;;3.80;99.90;;;;;;5063732;28;20522;-62
2023/04/27 06:07:12;;;;;;;8.00;4.57;;;3.90;99.90;;;;;;5063358;28;20033;-62
2023/04/27 06:09:38;;;;;;;10.45;4.25;;;4.00;99.90;;;;;;5062536;28;20036;-62
2023/04/27 06:12:05;;;;;;;4.53;3.23;;;4.10;99.90;;;;;;5068550;28;20043;-62
2023/04/27 06:14:32;;;;;;;8.27;4.15;;;4.20;99.90;;;;;;5063201;28;20029;-62
2023/04/27 06:16:58;;;;;;;9.65;3.65;;;4.40;99.90;;;;;;5066557;28;20027;-62
2023/04/27 06:19:25;;;;;;;7.77;4.40;;;4.40;99.90;;;;;;5062772;28;20104;-62
2023/04/27 06:21:52;;;;;;;;;;;4.60;99.90;;;;;;5067023;28;20017;-62
2023/04/27 06:24:17;;;;;;;;;;;4.70;99.90;;;;;;5066390;28;19912;-78
2023/04/27 06:26:43;;;;;;;6.43;4.13;;;4.90;99.90;;;;;;5065964;28;19912;-62
2023/04/27 06:29:09;;;;;;;7.47;3.13;;;5.00;99.90;;;;;;5069088;28;20052;-62
2023/04/27 06:31:34;;;;;;;10.03;3.43;;;5.10;99.90;;;;;;5065281;28;20032;-62
2023/04/27 06:34:00;;;;;;;3.83;2.80;;;5.30;99.90;;;;;;5065721;28;20021;-62
2023/04/27 06:36:30;;;;;;;3.47;2.50;;;5.40;99.90;;;;;;5061726;28;20037;-63
2023/04/27 06:38:56;;;;;;;5.05;3.15;;;5.50;99.90;;;;;;5065646;28;20395;-63
2023/04/27 06:41:23;;;;;;;7.35;2.70;;;5.60;99.90;;;;;;5067875;28;20603;-62
2023/04/27 06:43:49;;;;;;;10.25;3.15;;;5.70;99.90;;;;;;5064342;28;20029;-62
2023/04/27 06:46:14;;;;;;;10.73;3.00;;;5.90;99.90;;;;;;5071360;28;20021;-63
2023/04/27 06:48:40;;;;;;;5.93;3.40;;;6.00;99.90;;;;;;5061831;28;20013;-63
2023/04/27 06:51:06;;;;;;;8.23;3.00;;;6.00;99.90;;;;;;5067148;28;20078;-62
2023/04/27 06:53:32;;;;;;;9.70;3.33;;;6.10;99.90;;;;;;5074950;28;20013;-62
2023/04/27 06:55:58;;;;;;;6.27;3.40;;;6.30;99.90;;;;;;5074427;28;20031;-62
2023/04/27 06:58:24;;;;;;;5.47;3.20;;;6.40;99.90;;;;;;5068272;28;20582;-64
2023/04/27 07:00:50;;;;;;;11.60;4.63;;;6.50;99.90;;;;;;5067100;28;20113;-63
2023/04/27 07:03:16;;;;;;;9.90;2.85;;;6.60;99.90;;;;;;5074054;28;20253;-62
2023/04/27 07:05:42;;;;;;;8.30;5.83;;;6.80;99.90;;;;;;5067213;28;20028;-62
2023/04/27 07:08:07;;;;;;;5.73;3.17;;;6.80;99.90;;;;;;5073049;28;20024;-62
2023/04/27 07:10:33;;;;;;;5.37;2.67;;;7.00;99.90;;;;;;5071660;28;20039;-62
2023/04/27 07:12:59;;;;;;;6.27;2.23;;;7.20;99.90;;;;;;5074232;28;20090;-62
2023/04/27 07:15:25;;;;;;;5.23;2.17;;;7.40;99.90;;;;;;5070935;28;20455;-62
2023/04/27 07:17:54;;;;;;;4.75;1.90;;;7.60;99.90;;;;;;5073852;28;20038;-63
2023/04/27 07:20:20;;;;;;;17.13;2.17;;;7.90;99.90;;;;;;5072464;28;20032;-63
2023/04/27 07:22:46;;;;;;;7.17;2.83;;;8.30;99.90;;;;;;5066259;28;20301;-62
2023/04/27 07:25:12;;;;;;;8.60;4.15;;;8.70;99.90;;;;;;5067309;28;20264;-63
2023/04/27 07:27:38;;;;;;;6.83;3.00;;;9.00;99.90;;;;;;5072597;28;20157;-63
2023/04/27 07:30:08;;;;;;;11.35;6.25;;;9.30;99.90;;;;;;5061141;28;20108;-63
2023/04/27 07:32:34;;;;;;;8.90;3.35;;;9.50;99.90;;;;;;5067376;28;20331;-62
2023/04/27 07:35:00;;;;;;;7.18;4.80;;;9.70;99.90;;;;;;5066559;28;20021;-62
2023/04/27 07:37:25;;;;;;;6.93;3.60;;;9.90;99.90;;;;;;5071730;28;20036;-62
2023/04/27 07:39:52;;;;;;;5.17;1.70;;;10.00;99.90;;;;;;5070487;28;20035;-62
2023/04/27 07:42:18;;;;;;;4.00;1.77;;;10.20;99.90;;;;;;5058004;28;20412;-62
2023/04/27 07:44:44;;;;;;;4.20;2.05;;;10.40;99.90;;;;;;5062783;28;20108;-67
2023/04/27 07:47:10;;;;;;;4.27;2.07;;;10.60;99.90;;;;;;5066853;28;20111;-63
2023/04/27 07:49:37;;;;;;;3.80;2.50;;;10.80;99.90;;;;;;5061704;28;20062;-63
2023/04/27 07:52:03;;;;;;;7.05;1.50;;;11.00;99.90;;;;;;5067247;28;20296;-64
2023/04/27 07:54:29;;;;;;;5.65;1.73;;;11.30;99.90;;;;;;5074593;28;20036;-62
2023/04/27 07:56:55;;;;;;;3.33;1.87;;;11.50;99.90;;;;;;5064174;28;20013;-67
2023/04/27 07:59:20;;;;;;;4.67;1.97;;;11.60;99.90;;;;;;5066002;28;20286;-62
2023/04/27 08:01:46;;;;;;;7.00;2.10;;;11.80;99.90;;;;;;5059359;28;20032;-62
2023/04/27 08:04:12;;;;;;;5.20;2.63;;;11.80;99.90;;;;;;5067043;28;20035;-62
2023/04/27 08:06:38;;;;;;;3.73;2.00;;;11.90;99.90;;;;;;5071445;28;20399;-63
2023/04/27 08:09:04;;;;;;;4.10;1.67;;;12.10;99.90;;;;;;5060094;28;20025;-63
2023/04/27 08:11:30;;;;;;;8.73;2.53;;;12.30;99.90;;;;;;5064256;28;20447;-63
2023/04/27 08:13:56;;;;;;;6.13;2.92;;;12.70;99.90;;;;;;5062267;28;20024;-72
2023/04/27 08:16:22;;;;;;;4.53;2.30;;;12.90;99.90;;;;;;5061126;28;20028;-69
2023/04/27 08:18:49;;;;;;;6.33;2.40;;;13.00;99.90;;;;;;5067672;28;20079;-63
2023/04/27 08:21:15;;;;;;;18.42;8.40;;;13.30;99.90;;;;;;5072137;28;20030;-66
2023/04/27 08:23:41;;;;;;;22.93;10.47;;;13.60;99.90;;;;;;5073833;28;20307;-75
2023/04/27 08:26:07;;;;;;;3.07;2.30;;;13.80;99.90;;;;;;5062665;28;20036;-63
2023/04/27 08:28:32;;;;;;;70.00;33.60;;;13.80;99.40;;;;;;5063797;28;20277;-76
2023/04/27 08:30:58;;;;;;;25.87;10.67;;;13.60;99.30;;;;;;5062147;28;20040;-62
2023/04/27 08:33:24;;;;;;;2.50;1.40;;;13.60;99.80;;;;;;5074313;28;20021;-63
2023/04/27 08:35:53;;;;;;;14.90;9.20;;;13.50;98.40;;;;;;5065641;28;20032;-76
2023/04/27 08:38:19;;;;;;;6.65;3.00;;;13.50;99.90;;;;;;5067973;28;20105;-77
2023/04/27 08:40:44;;;;;;;17.63;11.40;;;13.70;99.60;;;;;;5068461;28;20025;-77
2023/04/27 08:43:10;;;;;;;7.50;5.40;;;13.70;99.30;;;;;;5065106;28;20085;-63
2023/04/27 08:45:36;;;;;;;3.77;1.77;;;13.80;99.30;;;;;;5073657;28;20315;-62
2023/04/27 08:48:02;;;;;;;3.07;1.17;;;13.90;98.80;;;;;;5071601;28;20033;-62
2023/04/27 08:50:28;;;;;;;4.73;1.43;;;13.70;97.20;;;;;;5073317;28;20052;-62
2023/04/27 08:52:54;;;;;;;3.05;1.30;;;13.40;97.20;;;;;;5071315;28;20316;-62
2023/04/27 08:55:20;;;;;;;13.37;4.90;;;13.50;99.90;;;;;;5071403;28;20435;-77
2023/04/27 08:58:00;;;;;;;84.97;33.03;;;14.00;99.90;;;;;;5105593;28;20027;-62
2023/04/27 09:00:26;;;;;;;7.28;4.35;;;14.40;99.90;;;;;;5070290;28;20024;-63
2023/04/27 09:02:52;;;;;;;4.00;2.75;;;14.80;99.90;;;;;;5076214;28;20364;-62
2023/04/27 09:05:20;;;;;;;9.20;5.30;;;15.10;99.50;;;;;;5074475;28;20056;-73
2023/04/27 09:07:56;;;;;;;5.82;2.10;;;14.80;97.70;;;;;;5066853;28;20028;-63
2023/04/27 09:10:22;;;;;;;4.57;1.92;;;14.70;98.80;;;;;;5073336;28;20024;-77
2023/04/27 09:12:59;;;;;;;5.13;1.73;;;14.80;96.00;;;;;;5076055;28;20032;-62
2023/04/27 09:15:27;;;;;;;5.38;2.00;;;14.70;97.20;;;;;;5077115;28;20025;-63
2023/04/27 09:17:56;;;;;;;6.15;1.67;;;14.80;98.10;;;;;;5076433;28;20052;-62
2023/04/27 09:20:22;;;;;;;1.92;1.33;;;14.90;95.10;;;;;;5076937;28;20086;-73
2023/04/27 09:22:51;;;;;;;3.90;1.60;;;14.30;95.00;;;;;;5076439;28;20059;-62
2023/04/27 09:25:23;;;;;;;2.97;1.52;;;13.90;97.70;;;;;;5066553;28;20029;-62
2023/04/27 09:27:49;;;;;;;2.83;1.67;;;14.30;99.60;;;;;;5073456;28;20028;-62
2023/04/27 09:30:15;;;;;;;5.03;1.83;;;14.40;95.20;;;;;;5075661;28;20454;-62
2023/04/27 09:32:55;;;;;;;4.15;2.08;;;14.30;94.90;;;;;;5076022;28;20029;-62
2023/04/27 09:35:30;;;;;;;2.63;1.83;;;13.70;95.30;;;;;;5069261;28;20021;-74
2023/04/27 09:37:56;;;;;;;4.80;1.70;;;13.70;94.60;;;;;;5061136;28;20055;-62
2023/04/27 09:40:26;;;;;;;5.13;1.85;;;13.80;97.40;;;;;;5065959;28;20378;-75
2023/04/27 09:42:54;;;;;;;3.17;2.03;;;14.20;96.30;;;;;;5073722;28;20492;-74
2023/04/27 09:45:20;;;;;;;3.38;2.08;;;13.80;95.80;;;;;;5074865;28;20408;-62
2023/04/27 09:47:46;;;;;;;5.50;2.63;;;13.80;95.70;;;;;;5075203;28;20043;-62
2023/04/27 09:50:12;;;;;;;20.60;6.47;;;14.00;96.10;;;;;;5072204;28;20036;-63
2023/04/27 09:52:38;;;;;;;7.50;3.25;;;14.50;96.00;;;;;;5074955;28;20025;-63
2023/04/27 09:55:10;;;;;;;5.00;2.10;;;14.70;94.30;;;;;;5071504;28;20031;-62
2023/04/27 09:57:51;;;;;;;6.20;2.22;;;14.60;94.50;;;;;;5068941;28;20024;-62
2023/04/27 10:00:31;;;;;;;5.05;1.85;;;14.60;96.90;;;;;;5067977;28;20067;-63
2023/04/27 10:03:18;;;;;;;5.00;2.35;;;14.80;95.90;;;;;;5075016;28;20066;-62
2023/04/27 10:06:05;;;;;;;4.43;2.30;;;14.60;95.60;;;;;;5059838;28;20021;-62
2023/04/27 10:08:34;;;;;;;5.88;2.38;;;14.60;94.80;;;;;;5065664;28;20050;-75
2023/04/27 10:10:59;;;;;;;7.68;2.40;;;14.50;94.80;;;;;;5071361;28;20040;-62
2023/04/27 10:13:26;;;;;;;2.90;1.73;;;14.50;95.10;;;;;;5068148;28;20368;-63
2023/04/27 10:15:52;;;;;;;2.90;1.85;;;14.50;94.40;;;;;;5066258;28;20040;-63
2023/04/27 10:18:54;;;;;;;2.35;1.80;;;14.30;94.40;;;;;;5069557;28;20039;-76
2023/04/27 10:21:21;;;;;;;2.65;2.08;;;14.30;96.20;;;;;;5069133;28;20028;-75
2023/04/27 10:23:49;;;;;;;9.02;2.35;;;14.50;96.80;;;;;;5069585;28;20033;-63
2023/04/27 10:26:26;;;;;;;5.68;2.40;;;14.60;97.00;;;;;;5073189;28;20052;-63
2023/04/27 10:29:06;;;;;;;4.25;1.92;;;14.80;94.90;;;;;;5067586;28;20331;-75
2023/04/27 10:31:32;;;;;;;4.25;2.25;;;15.00;94.60;;;;;;5065972;28;20314;-63
2023/04/27 10:34:14;;;;;;;5.75;2.55;;;14.70;93.90;;;;;;5072049;28;20024;-63
2023/04/27 10:36:41;;;;;;;3.10;2.38;;;14.40;94.70;;;;;;5072551;28;20079;-74
2023/04/27 10:39:37;;;;;;;7.30;2.45;;;14.40;95.10;;;;;;5070220;28;20415;-62
2023/04/27 10:42:04;;;;;;;2.85;2.22;;;14.40;95.60;;;;;;5049339;28;20036;-63
2023/04/27 10:44:31;;;;;;;5.97;2.50;;;14.60;95.20;;;;;;5072255;28;20039;-63
2023/04/27 10:46:59;;;;;;;4.13;2.30;;;14.70;93.80;;;;;;5074893;28;20040;-75
2023/04/27 10:49:28;;;;;;;6.45;2.50;;;14.60;93.60;;;;;;5068684;28;20039;-63
2023/04/27 10:51:57;;;;;;;5.88;2.45;;;14.80;97.20;;;;;;5066829;28;20028;-63
2023/04/27 10:54:28;;;;;;;8.27;2.72;;;15.10;95.30;;;;;;5069196;28;20020;-62
2023/04/27 10:56:54;;;;;;;6.28;2.63;;;15.00;93.40;;;;;;5070349;28;20024;-63
2023/04/27 10:59:20;;;;;;;4.40;2.17;;;15.00;93.90;;;;;;5066563;28;20036;-63
2023/04/27 11:01:50;;;;;;;6.10;2.97;;;15.30;94.20;;;;;;5067890;28;20116;-63
2023/04/27 11:04:17;;;;;;;5.57;2.65;;;15.50;93.10;;;;;;5073825;28;20056;-63
2023/04/27 11:06:47;;;;;;;4.10;2.63;;;15.60;93.10;;;;;;5072186;28;20025;-63
2023/04/27 11:09:23;;;;;;;5.10;2.67;;;15.90;94.10;;;;;;5073869;28;20432;-63
2023/04/27 11:11:49;;;;;;;;;;;16.10;93.50;;;;;;5068860;28;20059;-63
2023/04/27 11:14:19;;;;;;;2.35;2.15;;;16.10;92.20;;;;;;5064621;28;20354;-63
2023/04/27 11:16:46;;;;;;;3.80;2.85;;;16.10;92.70;;;;;;5063042;28;20025;-74
2023/04/27 11:19:12;;;;;;;5.10;2.90;;;16.30;92.80;;;;;;5064343;28;20087;-75
2023/04/27 11:21:38;;;;;;;5.93;2.87;;;16.50;93.10;;;;;;5072171;28;20052;-63
2023/04/27 11:24:05;;;;;;;5.60;2.70;;;16.70;91.80;;;;;;5059235;28;20033;-63
2023/04/27 11:26:31;;;;;;;7.43;3.10;;;16.90;92.20;;;;;;5071231;28;20035;-75
2023/04/27 11:29:08;;;;;;;3.83;2.73;;;16.90;92.60;;;;;;5072499;28;20044;-63
2023/04/27 11:31:39;;;;;;;7.05;3.22;;;17.10;91.70;;;;;;5072413;28;20035;-63
2023/04/27 11:34:06;;;;;;;4.78;3.10;;;16.80;90.00;;;;;;5060293;28;20033;-64
2023/04/27 11:36:31;;;;;;;9.10;3.38;;;16.40;92.00;;;;;;5060567;28;20017;-63
2023/04/27 11:38:58;;;;;;;6.40;3.07;;;16.50;91.80;;;;;;5064201;28;20109;-63
2023/04/27 11:41:33;;;;;;;5.57;3.45;;;16.10;91.80;;;;;;5062171;28;20033;-63
2023/04/27 11:44:07;;;;;;;10.93;3.63;;;15.60;92.50;;;;;;5064618;28;20039;-64
2023/04/27 11:46:37;;;;;;;10.63;3.95;;;15.10;92.60;;;;;;5065948;28;20435;-63
2023/04/27 11:49:05;;;;;;;9.07;4.25;;;14.60;93.60;;;;;;5068599;28;20079;-74
2023/04/27 11:51:32;;;;;;;9.30;3.53;;;14.60;93.80;;;;;;5058742;28;20025;-63
2023/04/27 11:54:05;;;;;;;7.85;3.97;;;14.50;94.50;;;;;;5069817;28;20415;-63
2023/04/27 11:56:38;;;;;;;4.20;3.00;;;14.50;94.60;;;;;;5069513;28;20059;-73
2023/04/27 11:59:05;;;;;;;7.03;3.60;;;14.40;94.00;;;;;;5065215;28;20029;-63
2023/04/27 12:01:33;;;;;;;5.60;2.97;;;14.30;94.60;;;;;;5066923;28;20027;-63
2023/04/27 12:04:01;;;;;;;5.65;3.35;;;14.10;94.10;;;;;;5063777;28;20029;-64
2023/04/27 12:06:28;;;;;;;6.82;3.45;;;14.00;94.60;;;;;;5069458;28;20068;-63
2023/04/27 12:08:57;;;;;;;8.18;2.50;;;14.10;94.50;;;;;;5108488;28;20032;-64
2023/04/27 12:11:26;;;;;;;8.73;3.63;;;14.10;94.00;;;;;;5064780;28;20032;-75
2023/04/27 12:13:53;;;;;;;7.57;4.00;;;14.40;95.80;;;;;;5073908;28;20407;-63
2023/04/27 12:16:22;;;;;;;8.73;3.55;;;14.60;95.00;;;;;;5066217;28;20028;-64
2023/04/27 12:18:49;;;;;;;6.28;3.53;;;14.70;94.00;;;;;;5070628;28;20029;-63
2023/04/27 12:21:15;;;;;;;10.00;3.60;;;14.40;93.80;;;;;;5071960;28;20028;-63
2023/04/27 12:23:41;;;;;;;7.45;3.47;;;14.00;94.20;;;;;;5074918;28;20032;-65
2023/04/27 12:26:07;;;;;;;9.70;3.83;;;13.90;94.80;;;;;;5068183;28;21309;-63
2023/04/27 12:28:33;;;;;;;6.43;3.53;;;13.90;95.10;;;;;;5076697;28;20032;-70
2023/04/27 12:31:01;;;;;;;8.73;4.50;;;13.70;95.40;;;;;;5076729;28;20166;-74
2023/04/27 12:33:27;;;;;;;10.02;3.10;;;13.80;96.80;;;;;;5076897;28;20027;-63
2023/04/27 12:35:52;;;;;;;5.17;3.07;;;14.10;94.50;;;;;;5073937;28;20024;-72
2023/04/27 12:38:18;;;;;;;5.07;3.00;;;14.10;95.70;;;;;;5076429;28;20023;-63
2023/04/27 12:40:43;;;;;;;4.90;3.03;;;14.20;94.40;;;;;;5075157;28;20075;-68
2023/04/27 12:43:09;;;;;;;7.80;3.83;;;14.20;94.50;;;;;;5076017;28;20024;-63
2023/04/27 12:45:35;;;;;;;4.67;3.17;;;14.10;94.90;;;;;;5075519;28;20029;-64
2023/04/27 12:48:01;;;;;;;9.90;3.87;;;14.30;95.30;;;;;;5072044;28;20481;-63
2023/04/27 12:50:26;;;;;;;9.97;3.50;;;14.40;95.50;;;;;;5064164;28;20104;-63